sensor_id;sensor_type;location;lat;lon;timestamp;P1;durP1;ratioP1;P2;durP2;ratioP2
72586;SDS011;60621;49.576;11.024;2022-10-15T00:00:52;6.53;;;3.53;;
72586;SDS011;60621;49.576;11.024;2022-10-15T00:01:54;6.47;;;3.35;;
72586;SDS011;60621;49.576;11.024;2022-10-15T00:02:56;7.13;;;3.65;;
72586;SDS011;60621;49.576;11.024;2022-10-15T00:03:58;6.82;;;3.50;;
72586;SDS011;60621;49.576;11.024;2022-10-15T00:05:01;7.47;;;4.03;;
72586;SDS011;60621;49.576;11.024;2022-10-15T00:06:04;7.90;;;3.97;;
72586;SDS011;60621;49.576;11.024;2022-10-15T00:07:12;10.23;;;4.05;;
72586;SDS011;60621;49.576;11.024;2022-10-15T00:08:13;7.10;;;3.78;;
72586;SDS011;60621;49.576;11.024;2022-10-15T00:09:15;6.93;;;3.72;;
72586;SDS011;60621;49.576;11.024;2022-10-15T00:10:17;7.53;;;3.85;;
72586;SDS011;60621;49.576;11.024;2022-10-15T00:11:20;7.50;;;3.47;;
72586;SDS011;60621;49.576;11.024;2022-10-15T00:12:23;6.93;;;3.88;;
72586;SDS011;60621;49.576;11.024;2022-10-15T00:13:25;9.63;;;3.90;;
72586;SDS011;60621;49.576;11.024;2022-10-15T00:14:26;7.20;;;3.90;;
72586;SDS011;60621;49.576;11.024;2022-10-15T00:15:28;6.80;;;3.67;;
72586;SDS011;60621;49.576;11.024;2022-10-15T00:16:30;8.82;;;3.45;;
72586;SDS011;60621;49.576;11.024;2022-10-15T00:17:33;9.05;;;4.38;;
72586;SDS011;60621;49.576;11.024;2022-10-15T00:18:35;7.38;;;3.47;;
72586;SDS011;60621;49.576;11.024;2022-10-15T00:19:37;6.40;;;3.47;;
72586;SDS011;60621;49.576;11.024;2022-10-15T00:20:40;7.93;;;3.40;;
72586;SDS011;60621;49.576;11.024;2022-10-15T00:21:42;8.60;;;3.83;;
72586;SDS011;60621;49.576;11.024;2022-10-15T00:22:43;7.20;;;3.70;;
72586;SDS011;60621;49.576;11.024;2022-10-15T00:23:45;9.20;;;3.45;;
72586;SDS011;60621;49.576;11.024;2022-10-15T00:24:47;5.82;;;3.03;;
72586;SDS011;60621;49.576;11.024;2022-10-15T00:25:48;6.65;;;3.30;;
72586;SDS011;60621;49.576;11.024;2022-10-15T00:26:50;8.55;;;4.00;;
72586;SDS011;60621;49.576;11.024;2022-10-15T00:27:52;7.38;;;3.83;;
72586;SDS011;60621;49.576;11.024;2022-10-15T00:28:54;6.85;;;3.70;;
72586;SDS011;60621;49.576;11.024;2022-10-15T00:29:57;7.28;;;3.92;;
72586;SDS011;60621;49.576;11.024;2022-10-15T00:32:05;8.45;;;3.60;;
72586;SDS011;60621;49.576;11.024;2022-10-15T00:33:07;7.20;;;3.70;;
72586;SDS011;60621;49.576;11.024;2022-10-15T00:34:08;7.72;;;3.53;;
72586;SDS011;60621;49.576;11.024;2022-10-15T00:35:10;7.30;;;3.80;;
72586;SDS011;60621;49.576;11.024;2022-10-15T00:36:12;7.40;;;3.17;;
72586;SDS011;60621;49.576;11.024;2022-10-15T00:37:15;8.63;;;3.60;;
72586;SDS011;60621;49.576;11.024;2022-10-15T00:38:17;7.00;;;3.70;;
72586;SDS011;60621;49.576;11.024;2022-10-15T00:39:19;5.78;;;3.20;;
72586;SDS011;60621;49.576;11.024;2022-10-15T00:40:26;6.88;;;3.15;;
72586;SDS011;60621;49.576;11.024;2022-10-15T00:41:29;7.05;;;3.05;;
72586;SDS011;60621;49.576;11.024;2022-10-15T00:42:36;8.45;;;3.45;;
72586;SDS011;60621;49.576;11.024;2022-10-15T00:44:51;6.78;;;2.88;;
72586;SDS011;60621;49.576;11.024;2022-10-15T00:45:57;6.00;;;3.22;;
72586;SDS011;60621;49.576;11.024;2022-10-15T00:47:04;7.25;;;3.17;;
72586;SDS011;60621;49.576;11.024;2022-10-15T00:48:09;7.18;;;3.25;;
72586;SDS011;60621;49.576;11.024;2022-10-15T00:49:17;6.90;;;3.22;;
72586;SDS011;60621;49.576;11.024;2022-10-15T00:50:24;7.85;;;3.33;;
72586;SDS011;60621;49.576;11.024;2022-10-15T00:51:29;8.93;;;3.00;;
72586;SDS011;60621;49.576;11.024;2022-10-15T00:52:40;5.15;;;2.88;;
72586;SDS011;60621;49.576;11.024;2022-10-15T00:53:46;7.05;;;3.20;;
72586;SDS011;60621;49.576;11.024;2022-10-15T00:54:55;7.50;;;3.03;;
72586;SDS011;60621;49.576;11.024;2022-10-15T00:56:00;6.30;;;3.15;;
72586;SDS011;60621;49.576;11.024;2022-10-15T00:57:03;5.93;;;3.10;;
72586;SDS011;60621;49.576;11.024;2022-10-15T00:59:15;5.88;;;2.90;;
72586;SDS011;60621;49.576;11.024;2022-10-15T01:00:20;6.43;;;3.10;;
72586;SDS011;60621;49.576;11.024;2022-10-15T01:01:23;7.13;;;3.25;;
72586;SDS011;60621;49.576;11.024;2022-10-15T01:02:26;5.57;;;2.83;;
72586;SDS011;60621;49.576;11.024;2022-10-15T01:03:27;5.93;;;2.67;;
72586;SDS011;60621;49.576;11.024;2022-10-15T01:04:29;5.40;;;2.80;;
72586;SDS011;60621;49.576;11.024;2022-10-15T01:05:31;6.57;;;2.90;;
72586;SDS011;60621;49.576;11.024;2022-10-15T01:06:34;6.38;;;2.90;;
72586;SDS011;60621;49.576;11.024;2022-10-15T01:07:36;6.97;;;3.13;;
72586;SDS011;60621;49.576;11.024;2022-10-15T01:08:38;6.07;;;2.90;;
72586;SDS011;60621;49.576;11.024;2022-10-15T01:09:39;6.43;;;2.80;;
72586;SDS011;60621;49.576;11.024;2022-10-15T01:12:25;6.35;;;2.78;;
72586;SDS011;60621;49.576;11.024;2022-10-15T01:14:38;5.65;;;2.72;;
72586;SDS011;60621;49.576;11.024;2022-10-15T01:15:52;6.75;;;3.05;;
72586;SDS011;60621;49.576;11.024;2022-10-15T01:18:52;7.20;;;3.10;;
72586;SDS011;60621;49.576;11.024;2022-10-15T01:21:59;5.88;;;3.10;;
72586;SDS011;60621;49.576;11.024;2022-10-15T01:23:26;8.48;;;3.03;;
72586;SDS011;60621;49.576;11.024;2022-10-15T01:32:33;4.88;;;2.70;;
72586;SDS011;60621;49.576;11.024;2022-10-15T01:33:43;5.32;;;2.47;;
72586;SDS011;60621;49.576;11.024;2022-10-15T01:34:54;5.78;;;2.85;;
72586;SDS011;60621;49.576;11.024;2022-10-15T01:36:08;5.55;;;2.60;;
72586;SDS011;60621;49.576;11.024;2022-10-15T01:39:32;5.60;;;2.80;;
72586;SDS011;60621;49.576;11.024;2022-10-15T01:40:48;5.95;;;2.70;;
72586;SDS011;60621;49.576;11.024;2022-10-15T01:43:04;5.75;;;2.78;;
72586;SDS011;60621;49.576;11.024;2022-10-15T01:44:28;6.15;;;2.80;;
72586;SDS011;60621;49.576;11.024;2022-10-15T01:45:35;8.23;;;2.90;;
72586;SDS011;60621;49.576;11.024;2022-10-15T01:46:56;4.57;;;2.22;;
72586;SDS011;60621;49.576;11.024;2022-10-15T01:48:06;5.70;;;3.00;;
72586;SDS011;60621;49.576;11.024;2022-10-15T01:49:11;5.10;;;2.40;;
72586;SDS011;60621;49.576;11.024;2022-10-15T01:50:14;5.22;;;2.63;;
72586;SDS011;60621;49.576;11.024;2022-10-15T01:51:18;4.72;;;2.35;;
72586;SDS011;60621;49.576;11.024;2022-10-15T01:52:24;5.63;;;2.80;;
72586;SDS011;60621;49.576;11.024;2022-10-15T01:53:36;5.43;;;2.60;;
72586;SDS011;60621;49.576;11.024;2022-10-15T01:54:40;6.18;;;2.63;;
72586;SDS011;60621;49.576;11.024;2022-10-15T01:55:42;5.72;;;3.05;;
72586;SDS011;60621;49.576;11.024;2022-10-15T01:56:46;6.53;;;3.00;;
72586;SDS011;60621;49.576;11.024;2022-10-15T01:57:50;5.47;;;2.30;;
72586;SDS011;60621;49.576;11.024;2022-10-15T01:58:54;5.50;;;2.60;;
72586;SDS011;60621;49.576;11.024;2022-10-15T01:59:56;5.65;;;2.60;;
72586;SDS011;60621;49.576;11.024;2022-10-15T02:00:58;5.40;;;2.90;;
72586;SDS011;60621;49.576;11.024;2022-10-15T02:02:01;6.53;;;2.75;;
72586;SDS011;60621;49.576;11.024;2022-10-15T02:03:02;6.03;;;3.10;;
72586;SDS011;60621;49.576;11.024;2022-10-15T02:04:15;6.50;;;2.67;;
72586;SDS011;60621;49.576;11.024;2022-10-15T02:05:19;5.75;;;2.70;;
72586;SDS011;60621;49.576;11.024;2022-10-15T02:06:26;5.97;;;2.78;;
72586;SDS011;60621;49.576;11.024;2022-10-15T02:08:55;4.82;;;2.40;;
72586;SDS011;60621;49.576;11.024;2022-10-15T02:11:10;5.65;;;2.67;;
72586;SDS011;60621;49.576;11.024;2022-10-15T02:12:23;5.10;;;2.70;;
72586;SDS011;60621;49.576;11.024;2022-10-15T02:15:18;6.00;;;2.50;;
72586;SDS011;60621;49.576;11.024;2022-10-15T02:16:22;5.55;;;2.60;;
72586;SDS011;60621;49.576;11.024;2022-10-15T02:17:33;6.25;;;2.30;;
72586;SDS011;60621;49.576;11.024;2022-10-15T02:18:46;5.40;;;2.50;;
72586;SDS011;60621;49.576;11.024;2022-10-15T02:19:59;5.03;;;2.40;;
72586;SDS011;60621;49.576;11.024;2022-10-15T02:21:08;4.45;;;2.10;;
72586;SDS011;60621;49.576;11.024;2022-10-15T02:22:13;4.00;;;1.90;;
72586;SDS011;60621;49.576;11.024;2022-10-15T02:24:23;5.88;;;2.75;;
72586;SDS011;60621;49.576;11.024;2022-10-15T02:25:27;5.00;;;2.47;;
72586;SDS011;60621;49.576;11.024;2022-10-15T02:26:29;5.57;;;2.47;;
72586;SDS011;60621;49.576;11.024;2022-10-15T02:27:31;5.68;;;2.63;;
72586;SDS011;60621;49.576;11.024;2022-10-15T02:28:35;5.75;;;2.50;;
72586;SDS011;60621;49.576;11.024;2022-10-15T02:29:39;4.78;;;2.13;;
72586;SDS011;60621;49.576;11.024;2022-10-15T02:30:43;4.95;;;2.30;;
72586;SDS011;60621;49.576;11.024;2022-10-15T02:31:49;5.63;;;2.40;;
72586;SDS011;60621;49.576;11.024;2022-10-15T02:32:52;5.03;;;2.20;;
72586;SDS011;60621;49.576;11.024;2022-10-15T02:34:00;4.35;;;2.13;;
72586;SDS011;60621;49.576;11.024;2022-10-15T02:35:06;5.43;;;2.38;;
72586;SDS011;60621;49.576;11.024;2022-10-15T02:36:10;5.30;;;2.50;;
72586;SDS011;60621;49.576;11.024;2022-10-15T02:38:18;6.05;;;2.15;;
72586;SDS011;60621;49.576;11.024;2022-10-15T02:39:23;5.35;;;2.60;;
72586;SDS011;60621;49.576;11.024;2022-10-15T02:40:26;5.28;;;2.60;;
72586;SDS011;60621;49.576;11.024;2022-10-15T02:41:30;5.45;;;2.20;;
72586;SDS011;60621;49.576;11.024;2022-10-15T02:42:36;5.03;;;2.40;;
72586;SDS011;60621;49.576;11.024;2022-10-15T02:43:38;4.88;;;2.40;;
72586;SDS011;60621;49.576;11.024;2022-10-15T02:44:41;4.47;;;2.20;;
72586;SDS011;60621;49.576;11.024;2022-10-15T02:45:42;4.40;;;2.20;;
72586;SDS011;60621;49.576;11.024;2022-10-15T02:46:44;4.53;;;2.40;;
72586;SDS011;60621;49.576;11.024;2022-10-15T02:47:46;5.57;;;2.22;;
72586;SDS011;60621;49.576;11.024;2022-10-15T02:48:47;4.55;;;2.10;;
72586;SDS011;60621;49.576;11.024;2022-10-15T02:49:49;5.18;;;2.00;;
72586;SDS011;60621;49.576;11.024;2022-10-15T02:50:50;5.53;;;2.30;;
72586;SDS011;60621;49.576;11.024;2022-10-15T02:51:52;5.30;;;2.00;;
72586;SDS011;60621;49.576;11.024;2022-10-15T02:52:54;5.32;;;2.38;;
72586;SDS011;60621;49.576;11.024;2022-10-15T02:53:55;6.03;;;2.20;;
72586;SDS011;60621;49.576;11.024;2022-10-15T02:54:57;4.55;;;2.10;;
72586;SDS011;60621;49.576;11.024;2022-10-15T02:55:58;4.22;;;2.00;;
72586;SDS011;60621;49.576;11.024;2022-10-15T02:57:00;5.00;;;2.10;;
72586;SDS011;60621;49.576;11.024;2022-10-15T02:58:01;6.93;;;2.40;;
72586;SDS011;60621;49.576;11.024;2022-10-15T02:59:04;5.60;;;2.30;;
72586;SDS011;60621;49.576;11.024;2022-10-15T03:00:06;6.22;;;2.10;;
72586;SDS011;60621;49.576;11.024;2022-10-15T03:01:08;5.03;;;2.10;;
72586;SDS011;60621;49.576;11.024;2022-10-15T03:02:10;5.45;;;2.22;;
72586;SDS011;60621;49.576;11.024;2022-10-15T03:03:18;6.63;;;2.00;;
72586;SDS011;60621;49.576;11.024;2022-10-15T03:04:20;4.38;;;1.90;;
72586;SDS011;60621;49.576;11.024;2022-10-15T03:05:21;4.25;;;1.95;;
72586;SDS011;60621;49.576;11.024;2022-10-15T03:06:24;4.57;;;2.10;;
72586;SDS011;60621;49.576;11.024;2022-10-15T03:07:26;5.07;;;2.05;;
72586;SDS011;60621;49.576;11.024;2022-10-15T03:08:27;5.38;;;1.98;;
72586;SDS011;60621;49.576;11.024;2022-10-15T03:09:29;4.30;;;1.90;;
72586;SDS011;60621;49.576;11.024;2022-10-15T03:10:30;4.93;;;1.90;;
72586;SDS011;60621;49.576;11.024;2022-10-15T03:11:32;4.45;;;1.90;;
72586;SDS011;60621;49.576;11.024;2022-10-15T03:12:33;4.47;;;1.77;;
72586;SDS011;60621;49.576;11.024;2022-10-15T03:13:36;4.60;;;2.08;;
72586;SDS011;60621;49.576;11.024;2022-10-15T03:14:41;4.80;;;1.92;;
72586;SDS011;60621;49.576;11.024;2022-10-15T03:15:42;5.13;;;2.05;;
72586;SDS011;60621;49.576;11.024;2022-10-15T03:16:44;5.45;;;2.05;;
72586;SDS011;60621;49.576;11.024;2022-10-15T03:17:46;4.57;;;2.00;;
72586;SDS011;60621;49.576;11.024;2022-10-15T03:18:47;4.90;;;1.80;;
72586;SDS011;60621;49.576;11.024;2022-10-15T03:19:49;5.45;;;2.00;;
72586;SDS011;60621;49.576;11.024;2022-10-15T03:20:54;3.85;;;1.52;;
72586;SDS011;60621;49.576;11.024;2022-10-15T03:21:56;5.95;;;2.17;;
72586;SDS011;60621;49.576;11.024;2022-10-15T03:22:58;4.35;;;1.95;;
72586;SDS011;60621;49.576;11.024;2022-10-15T03:23:59;5.05;;;2.00;;
72586;SDS011;60621;49.576;11.024;2022-10-15T03:25:01;4.47;;;1.80;;
72586;SDS011;60621;49.576;11.024;2022-10-15T03:26:02;4.22;;;1.60;;
72586;SDS011;60621;49.576;11.024;2022-10-15T03:27:04;4.00;;;1.70;;
72586;SDS011;60621;49.576;11.024;2022-10-15T03:28:06;4.32;;;1.90;;
72586;SDS011;60621;49.576;11.024;2022-10-15T03:29:07;4.35;;;1.80;;
72586;SDS011;60621;49.576;11.024;2022-10-15T03:30:11;4.65;;;1.85;;
72586;SDS011;60621;49.576;11.024;2022-10-15T03:31:16;4.00;;;1.70;;
72586;SDS011;60621;49.576;11.024;2022-10-15T03:32:18;5.00;;;1.70;;
72586;SDS011;60621;49.576;11.024;2022-10-15T03:33:19;4.95;;;2.00;;
72586;SDS011;60621;49.576;11.024;2022-10-15T03:34:25;5.10;;;1.70;;
72586;SDS011;60621;49.576;11.024;2022-10-15T03:35:26;4.55;;;1.75;;
72586;SDS011;60621;49.576;11.024;2022-10-15T03:36:28;5.38;;;1.60;;
72586;SDS011;60621;49.576;11.024;2022-10-15T03:37:30;3.97;;;1.60;;
72586;SDS011;60621;49.576;11.024;2022-10-15T03:38:31;3.97;;;1.70;;
72586;SDS011;60621;49.576;11.024;2022-10-15T03:39:33;5.35;;;1.50;;
72586;SDS011;60621;49.576;11.024;2022-10-15T03:40:34;3.75;;;1.42;;
72586;SDS011;60621;49.576;11.024;2022-10-15T03:41:36;3.53;;;1.33;;
72586;SDS011;60621;49.576;11.024;2022-10-15T03:42:38;4.45;;;1.50;;
72586;SDS011;60621;49.576;11.024;2022-10-15T03:43:40;5.00;;;1.50;;
72586;SDS011;60621;49.576;11.024;2022-10-15T03:44:43;3.92;;;1.50;;
72586;SDS011;60621;49.576;11.024;2022-10-15T03:45:44;3.53;;;1.40;;
72586;SDS011;60621;49.576;11.024;2022-10-15T03:46:46;3.47;;;1.40;;
72586;SDS011;60621;49.576;11.024;2022-10-15T03:47:48;3.60;;;1.40;;
72586;SDS011;60621;49.576;11.024;2022-10-15T03:48:49;4.20;;;1.65;;
72586;SDS011;60621;49.576;11.024;2022-10-15T03:49:51;4.05;;;1.30;;
72586;SDS011;60621;49.576;11.024;2022-10-15T03:50:52;4.05;;;1.52;;
72586;SDS011;60621;49.576;11.024;2022-10-15T03:51:54;3.92;;;1.55;;
72586;SDS011;60621;49.576;11.024;2022-10-15T03:52:55;3.33;;;1.30;;
72586;SDS011;60621;49.576;11.024;2022-10-15T03:53:57;4.35;;;1.33;;
72586;SDS011;60621;49.576;11.024;2022-10-15T03:54:58;3.20;;;1.33;;
72586;SDS011;60621;49.576;11.024;2022-10-15T03:56:03;3.30;;;1.20;;
72586;SDS011;60621;49.576;11.024;2022-10-15T03:57:05;3.75;;;1.30;;
72586;SDS011;60621;49.576;11.024;2022-10-15T03:58:07;3.85;;;1.30;;
72586;SDS011;60621;49.576;11.024;2022-10-15T03:59:08;4.57;;;1.40;;
72586;SDS011;60621;49.576;11.024;2022-10-15T04:00:10;3.88;;;1.23;;
72586;SDS011;60621;49.576;11.024;2022-10-15T04:01:15;3.80;;;1.20;;
72586;SDS011;60621;49.576;11.024;2022-10-15T04:02:18;3.67;;;1.25;;
72586;SDS011;60621;49.576;11.024;2022-10-15T04:03:20;3.97;;;1.33;;
72586;SDS011;60621;49.576;11.024;2022-10-15T04:04:21;3.33;;;1.30;;
72586;SDS011;60621;49.576;11.024;2022-10-15T04:05:23;3.97;;;1.40;;
72586;SDS011;60621;49.576;11.024;2022-10-15T04:06:24;5.18;;;1.40;;
72586;SDS011;60621;49.576;11.024;2022-10-15T04:07:26;3.90;;;1.30;;
72586;SDS011;60621;49.576;11.024;2022-10-15T04:08:27;3.30;;;1.27;;
72586;SDS011;60621;49.576;11.024;2022-10-15T04:09:29;3.97;;;1.40;;
72586;SDS011;60621;49.576;11.024;2022-10-15T04:10:30;3.33;;;1.15;;
72586;SDS011;60621;49.576;11.024;2022-10-15T04:11:32;4.70;;;1.23;;
72586;SDS011;60621;49.576;11.024;2022-10-15T04:12:33;3.05;;;1.02;;
72586;SDS011;60621;49.576;11.024;2022-10-15T04:13:35;3.30;;;1.38;;
72586;SDS011;60621;49.576;11.024;2022-10-15T04:14:36;3.38;;;1.30;;
72586;SDS011;60621;49.576;11.024;2022-10-15T04:15:38;3.30;;;1.33;;
72586;SDS011;60621;49.576;11.024;2022-10-15T04:16:40;3.78;;;1.40;;
72586;SDS011;60621;49.576;11.024;2022-10-15T04:17:41;3.90;;;1.30;;
72586;SDS011;60621;49.576;11.024;2022-10-15T04:18:43;4.40;;;1.30;;
72586;SDS011;60621;49.576;11.024;2022-10-15T04:19:45;3.13;;;1.20;;
72586;SDS011;60621;49.576;11.024;2022-10-15T04:20:47;5.00;;;1.40;;
72586;SDS011;60621;49.576;11.024;2022-10-15T04:21:49;3.55;;;1.38;;
72586;SDS011;60621;49.576;11.024;2022-10-15T04:22:50;4.03;;;1.40;;
72586;SDS011;60621;49.576;11.024;2022-10-15T04:23:52;3.20;;;1.30;;
72586;SDS011;60621;49.576;11.024;2022-10-15T04:24:53;3.40;;;1.30;;
72586;SDS011;60621;49.576;11.024;2022-10-15T04:25:57;2.92;;;1.10;;
72586;SDS011;60621;49.576;11.024;2022-10-15T04:27:00;3.50;;;1.17;;
72586;SDS011;60621;49.576;11.024;2022-10-15T04:28:02;3.30;;;1.35;;
72586;SDS011;60621;49.576;11.024;2022-10-15T04:29:03;3.83;;;1.50;;
72586;SDS011;60621;49.576;11.024;2022-10-15T04:30:05;3.40;;;1.25;;
72586;SDS011;60621;49.576;11.024;2022-10-15T04:31:07;3.80;;;1.10;;
72586;SDS011;60621;49.576;11.024;2022-10-15T04:32:11;3.72;;;1.40;;
72586;SDS011;60621;49.576;11.024;2022-10-15T04:33:15;4.13;;;1.40;;
72586;SDS011;60621;49.576;11.024;2022-10-15T04:34:17;3.72;;;1.40;;
72586;SDS011;60621;49.576;11.024;2022-10-15T04:35:18;4.03;;;1.15;;
72586;SDS011;60621;49.576;11.024;2022-10-15T04:36:20;3.03;;;1.10;;
72586;SDS011;60621;49.576;11.024;2022-10-15T04:37:22;5.78;;;1.50;;
72586;SDS011;60621;49.576;11.024;2022-10-15T04:38:24;3.55;;;1.40;;
72586;SDS011;60621;49.576;11.024;2022-10-15T04:39:25;4.72;;;1.33;;
72586;SDS011;60621;49.576;11.024;2022-10-15T04:40:27;3.63;;;1.02;;
72586;SDS011;60621;49.576;11.024;2022-10-15T04:41:28;3.80;;;1.20;;
72586;SDS011;60621;49.576;11.024;2022-10-15T04:42:31;3.25;;;1.02;;
72586;SDS011;60621;49.576;11.024;2022-10-15T04:43:32;4.03;;;1.20;;
72586;SDS011;60621;49.576;11.024;2022-10-15T04:44:34;3.17;;;1.27;;
72586;SDS011;60621;49.576;11.024;2022-10-15T04:45:36;3.28;;;1.20;;
72586;SDS011;60621;49.576;11.024;2022-10-15T04:46:37;3.95;;;1.25;;
72586;SDS011;60621;49.576;11.024;2022-10-15T04:47:40;3.97;;;1.58;;
72586;SDS011;60621;49.576;11.024;2022-10-15T04:49:44;3.30;;;1.15;;
72586;SDS011;60621;49.576;11.024;2022-10-15T04:50:45;4.25;;;1.25;;
72586;SDS011;60621;49.576;11.024;2022-10-15T04:51:47;3.63;;;1.30;;
72586;SDS011;60621;49.576;11.024;2022-10-15T04:52:49;3.33;;;1.20;;
72586;SDS011;60621;49.576;11.024;2022-10-15T04:53:50;3.38;;;1.40;;
72586;SDS011;60621;49.576;11.024;2022-10-15T04:54:52;4.55;;;1.40;;
72586;SDS011;60621;49.576;11.024;2022-10-15T04:55:58;4.78;;;1.40;;
72586;SDS011;60621;49.576;11.024;2022-10-15T04:57:01;4.25;;;1.30;;
72586;SDS011;60621;49.576;11.024;2022-10-15T04:58:04;3.20;;;1.20;;
72586;SDS011;60621;49.576;11.024;2022-10-15T04:59:06;3.58;;;1.50;;
72586;SDS011;60621;49.576;11.024;2022-10-15T05:00:08;3.40;;;1.30;;
72586;SDS011;60621;49.576;11.024;2022-10-15T05:01:12;3.25;;;1.30;;
72586;SDS011;60621;49.576;11.024;2022-10-15T05:02:15;3.90;;;1.30;;
72586;SDS011;60621;49.576;11.024;2022-10-15T05:03:17;3.63;;;1.17;;
72586;SDS011;60621;49.576;11.024;2022-10-15T05:04:18;3.70;;;1.52;;
72586;SDS011;60621;49.576;11.024;2022-10-15T05:05:20;4.53;;;1.50;;
72586;SDS011;60621;49.576;11.024;2022-10-15T05:06:22;3.40;;;1.20;;
72586;SDS011;60621;49.576;11.024;2022-10-15T05:07:23;3.92;;;1.42;;
72586;SDS011;60621;49.576;11.024;2022-10-15T05:08:26;4.97;;;1.40;;
72586;SDS011;60621;49.576;11.024;2022-10-15T05:09:27;4.40;;;1.35;;
72586;SDS011;60621;49.576;11.024;2022-10-15T05:10:29;4.40;;;1.35;;
72586;SDS011;60621;49.576;11.024;2022-10-15T05:11:30;4.55;;;1.30;;
72586;SDS011;60621;49.576;11.024;2022-10-15T05:12:36;3.53;;;1.30;;
72586;SDS011;60621;49.576;11.024;2022-10-15T05:13:38;4.10;;;1.20;;
72586;SDS011;60621;49.576;11.024;2022-10-15T05:14:39;3.72;;;1.45;;
72586;SDS011;60621;49.576;11.024;2022-10-15T05:15:42;4.72;;;1.63;;
72586;SDS011;60621;49.576;11.024;2022-10-15T05:16:43;4.30;;;1.48;;
72586;SDS011;60621;49.576;11.024;2022-10-15T05:17:45;4.05;;;1.42;;
72586;SDS011;60621;49.576;11.024;2022-10-15T05:18:47;3.17;;;1.45;;
72586;SDS011;60621;49.576;11.024;2022-10-15T05:19:50;3.90;;;1.30;;
72586;SDS011;60621;49.576;11.024;2022-10-15T05:20:52;3.15;;;1.30;;
72586;SDS011;60621;49.576;11.024;2022-10-15T05:21:53;3.67;;;1.30;;
72586;SDS011;60621;49.576;11.024;2022-10-15T05:22:54;7.13;;;1.60;;
72586;SDS011;60621;49.576;11.024;2022-10-15T05:23:57;4.13;;;1.45;;
72586;SDS011;60621;49.576;11.024;2022-10-15T05:24:59;3.95;;;1.35;;
72586;SDS011;60621;49.576;11.024;2022-10-15T05:26:05;3.20;;;1.33;;
72586;SDS011;60621;49.576;11.024;2022-10-15T05:27:08;3.90;;;1.30;;
72586;SDS011;60621;49.576;11.024;2022-10-15T05:28:09;3.67;;;1.30;;
72586;SDS011;60621;49.576;11.024;2022-10-15T05:29:11;3.63;;;1.30;;
72586;SDS011;60621;49.576;11.024;2022-10-15T05:30:12;3.42;;;1.30;;
72586;SDS011;60621;49.576;11.024;2022-10-15T05:31:15;4.72;;;1.55;;
72586;SDS011;60621;49.576;11.024;2022-10-15T05:32:19;3.72;;;1.10;;
72586;SDS011;60621;49.576;11.024;2022-10-15T05:33:23;3.10;;;1.13;;
72586;SDS011;60621;49.576;11.024;2022-10-15T05:34:27;4.15;;;1.40;;
72586;SDS011;60621;49.576;11.024;2022-10-15T05:36:32;3.08;;;1.05;;
72586;SDS011;60621;49.576;11.024;2022-10-15T05:37:34;5.18;;;1.40;;
72586;SDS011;60621;49.576;11.024;2022-10-15T05:38:35;3.55;;;1.40;;
72586;SDS011;60621;49.576;11.024;2022-10-15T05:39:37;4.88;;;1.50;;
72586;SDS011;60621;49.576;11.024;2022-10-15T05:40:38;3.78;;;1.40;;
72586;SDS011;60621;49.576;11.024;2022-10-15T05:41:40;5.13;;;1.40;;
72586;SDS011;60621;49.576;11.024;2022-10-15T05:42:42;4.05;;;1.35;;
72586;SDS011;60621;49.576;11.024;2022-10-15T05:43:46;3.60;;;1.33;;
72586;SDS011;60621;49.576;11.024;2022-10-15T05:44:51;5.43;;;1.40;;
72586;SDS011;60621;49.576;11.024;2022-10-15T05:45:53;3.60;;;1.55;;
72586;SDS011;60621;49.576;11.024;2022-10-15T05:46:55;4.13;;;1.50;;
72586;SDS011;60621;49.576;11.024;2022-10-15T05:47:57;3.42;;;1.30;;
72586;SDS011;60621;49.576;11.024;2022-10-15T05:48:58;6.50;;;1.70;;
72586;SDS011;60621;49.576;11.024;2022-10-15T05:50:00;3.58;;;1.45;;
72586;SDS011;60621;49.576;11.024;2022-10-15T05:51:02;4.70;;;1.60;;
72586;SDS011;60621;49.576;11.024;2022-10-15T05:52:22;3.03;;;1.23;;
72586;SDS011;60621;49.576;11.024;2022-10-15T05:53:24;4.30;;;1.65;;
72586;SDS011;60621;49.576;11.024;2022-10-15T05:54:25;5.57;;;2.72;;
72586;SDS011;60621;49.576;11.024;2022-10-15T05:55:27;10.15;;;5.30;;
72586;SDS011;60621;49.576;11.024;2022-10-15T05:56:28;5.45;;;2.30;;
72586;SDS011;60621;49.576;11.024;2022-10-15T05:57:30;5.75;;;3.00;;
72586;SDS011;60621;49.576;11.024;2022-10-15T05:58:32;5.53;;;2.13;;
72586;SDS011;60621;49.576;11.024;2022-10-15T05:59:37;4.88;;;1.80;;
72586;SDS011;60621;49.576;11.024;2022-10-15T06:00:39;4.18;;;1.63;;
72586;SDS011;60621;49.576;11.024;2022-10-15T06:01:40;4.65;;;1.40;;
72586;SDS011;60621;49.576;11.024;2022-10-15T06:02:42;3.72;;;1.40;;
72586;SDS011;60621;49.576;11.024;2022-10-15T06:03:44;3.28;;;1.25;;
72586;SDS011;60621;49.576;11.024;2022-10-15T06:04:46;5.97;;;1.45;;
72586;SDS011;60621;49.576;11.024;2022-10-15T06:05:48;4.70;;;1.30;;
72586;SDS011;60621;49.576;11.024;2022-10-15T06:06:50;3.85;;;1.50;;
72586;SDS011;60621;49.576;11.024;2022-10-15T06:07:52;3.00;;;1.20;;
72586;SDS011;60621;49.576;11.024;2022-10-15T06:08:54;3.08;;;1.30;;
72586;SDS011;60621;49.576;11.024;2022-10-15T06:09:56;3.55;;;1.45;;
72586;SDS011;60621;49.576;11.024;2022-10-15T06:11:01;3.60;;;1.30;;
72586;SDS011;60621;49.576;11.024;2022-10-15T06:12:09;3.95;;;1.35;;
72586;SDS011;60621;49.576;11.024;2022-10-15T06:13:11;4.93;;;1.40;;
72586;SDS011;60621;49.576;11.024;2022-10-15T06:14:13;3.70;;;1.27;;
72586;SDS011;60621;49.576;11.024;2022-10-15T06:15:14;4.38;;;1.40;;
72586;SDS011;60621;49.576;11.024;2022-10-15T06:16:16;3.90;;;1.40;;
72586;SDS011;60621;49.576;11.024;2022-10-15T06:17:24;3.05;;;1.30;;
72586;SDS011;60621;49.576;11.024;2022-10-15T06:18:26;3.90;;;1.20;;
72586;SDS011;60621;49.576;11.024;2022-10-15T06:19:27;3.85;;;1.27;;
72586;SDS011;60621;49.576;11.024;2022-10-15T06:20:29;3.35;;;1.30;;
72586;SDS011;60621;49.576;11.024;2022-10-15T06:21:30;3.85;;;1.38;;
72586;SDS011;60621;49.576;11.024;2022-10-15T06:22:33;4.68;;;1.50;;
72586;SDS011;60621;49.576;11.024;2022-10-15T06:23:35;4.03;;;1.60;;
72586;SDS011;60621;49.576;11.024;2022-10-15T06:24:37;2.70;;;1.15;;
72586;SDS011;60621;49.576;11.024;2022-10-15T06:25:38;5.43;;;1.50;;
72586;SDS011;60621;49.576;11.024;2022-10-15T06:26:40;3.15;;;1.30;;
72586;SDS011;60621;49.576;11.024;2022-10-15T06:27:41;3.97;;;1.27;;
72586;SDS011;60621;49.576;11.024;2022-10-15T06:28:43;4.55;;;1.20;;
72586;SDS011;60621;49.576;11.024;2022-10-15T06:29:44;4.47;;;1.30;;
72586;SDS011;60621;49.576;11.024;2022-10-15T06:30:46;4.18;;;1.20;;
72586;SDS011;60621;49.576;11.024;2022-10-15T06:31:47;4.30;;;1.20;;
72586;SDS011;60621;49.576;11.024;2022-10-15T06:32:50;3.63;;;1.17;;
72586;SDS011;60621;49.576;11.024;2022-10-15T06:33:52;3.70;;;1.40;;
72586;SDS011;60621;49.576;11.024;2022-10-15T06:34:54;4.45;;;1.60;;
72586;SDS011;60621;49.576;11.024;2022-10-15T06:35:59;4.07;;;1.40;;
72586;SDS011;60621;49.576;11.024;2022-10-15T06:37:05;3.42;;;1.50;;
72586;SDS011;60621;49.576;11.024;2022-10-15T06:38:06;3.65;;;1.20;;
72586;SDS011;60621;49.576;11.024;2022-10-15T06:39:08;5.50;;;1.30;;
72586;SDS011;60621;49.576;11.024;2022-10-15T06:40:09;4.03;;;1.33;;
72586;SDS011;60621;49.576;11.024;2022-10-15T06:41:12;4.72;;;1.40;;
72586;SDS011;60621;49.576;11.024;2022-10-15T06:42:13;3.53;;;1.25;;
72586;SDS011;60621;49.576;11.024;2022-10-15T06:43:15;3.45;;;1.20;;
72586;SDS011;60621;49.576;11.024;2022-10-15T06:44:17;4.97;;;1.40;;
72586;SDS011;60621;49.576;11.024;2022-10-15T06:45:19;4.25;;;1.33;;